Time;durP1;ratioP1;P1;durP2;ratioP2;P2;SDS_P1;SDS_P2;PMS_P1;PMS_P2;Temp;Humidity;BMP_temperature;BMP_pressure;BME280_temperature;BME280_humidity;BME280_pressure;Samples;Min_cycle;Max_cycle;Signal;HPM_P1;HPM_P2
2021/07/18 00:01:40;;;;;;;12.30;8.98;;;23.40;91.90;;;;;;6111579;23;20010;-91
2021/07/18 00:04:06;;;;;;;14.00;9.43;;;23.30;91.90;;;;;;6121140;23;20029;-91
2021/07/18 00:06:32;;;;;;;11.30;9.32;;;23.30;92.00;;;;;;6119737;23;20027;-91
2021/07/18 00:08:58;;;;;;;11.98;8.98;;;23.30;92.20;;;;;;6141849;23;20009;-91
2021/07/18 00:11:24;;;;;;;9.77;8.75;;;23.30;92.20;;;;;;6141609;23;20088;-91
2021/07/18 00:13:49;;;;;;;10.23;9.05;;;23.40;92.20;;;;;;6104236;23;20006;-91
2021/07/18 00:16:15;;;;;;;10.00;8.68;;;23.30;92.20;;;;;;6104762;23;20033;-91
2021/07/18 00:18:41;;;;;;;9.88;8.60;;;23.30;92.30;;;;;;6127541;23;20299;-91
2021/07/18 00:21:06;;;;;;;11.30;9.40;;;23.30;92.30;;;;;;6103177;23;19998;-92
2021/07/18 00:23:32;;;;;;;10.45;9.35;;;23.30;92.40;;;;;;6102091;23;20006;-91
2021/07/18 00:25:58;;;;;;;11.48;10.27;;;23.30;92.50;;;;;;6102079;23;20088;-91
2021/07/18 00:28:23;;;;;;;11.25;8.70;;;23.30;92.70;;;;;;6101877;23;20002;-91
2021/07/18 00:30:49;;;;;;;11.55;9.57;;;23.30;92.70;;;;;;6101816;23;20002;-91
2021/07/18 00:33:14;;;;;;;15.27;10.88;;;23.30;92.70;;;;;;6108088;23;20026;-91
2021/07/18 00:35:40;;;;;;;12.73;10.68;;;23.30;93.00;;;;;;6126123;23;20003;-91
2021/07/18 00:38:06;;;;;;;11.88;10.15;;;23.30;93.10;;;;;;6126361;23;20006;-92
2021/07/18 00:40:32;;;;;;;11.85;9.60;;;23.30;93.20;;;;;;6127926;23;19998;-92
2021/07/18 00:42:58;;;;;;;8.75;7.82;;;23.30;93.10;;;;;;6128193;23;20002;-91
2021/07/18 00:45:24;;;;;;;10.73;8.48;;;23.30;93.10;;;;;;6127666;23;20006;-91
2021/07/18 00:47:50;;;;;;;10.15;8.73;;;23.20;93.40;;;;;;6126881;23;20010;-91
2021/07/18 00:50:17;;;;;;;10.90;9.02;;;23.20;93.20;;;;;;6128276;23;20104;-90
2021/07/18 00:52:43;;;;;;;11.82;7.90;;;23.20;93.30;;;;;;6126608;23;20010;-91
2021/07/18 00:55:11;;;;;;;9.05;8.05;;;23.20;93.20;;;;;;6127855;23;20006;-91
2021/07/18 00:57:38;;;;;;;10.40;9.27;;;23.20;93.40;;;;;;6126038;23;20022;-91
2021/07/18 01:00:09;;;;;;;13.68;9.93;;;23.20;93.70;;;;;;6125989;23;20493;-91
2021/07/18 01:02:39;;;;;;;9.75;7.90;;;23.20;93.90;;;;;;6126586;23;20006;-91
2021/07/18 01:05:10;;;;;;;10.45;8.40;;;23.20;93.70;;;;;;6125765;23;20033;-92
2021/07/18 01:07:36;;;;;;;10.68;8.13;;;23.20;93.80;;;;;;6126934;23;20438;-91
2021/07/18 01:10:04;;;;;;;9.98;8.95;;;23.20;93.60;;;;;;6125755;23;20084;-91
2021/07/18 01:12:30;;;;;;;12.88;9.25;;;23.20;93.70;;;;;;6126018;23;20006;-91
2021/07/18 01:14:55;;;;;;;8.95;7.97;;;23.20;93.90;;;;;;6127389;23;20032;-92
2021/07/18 01:17:21;;;;;;;8.57;7.28;;;23.20;93.80;;;;;;6126209;23;20013;-91
2021/07/18 01:19:47;;;;;;;8.00;7.20;;;23.20;93.80;;;;;;6125922;23;20375;-91
2021/07/18 01:22:13;;;;;;;12.18;8.45;;;23.20;93.80;;;;;;6126036;23;20017;-91
2021/07/18 01:24:39;;;;;;;13.50;8.55;;;23.20;93.90;;;;;;6126196;23;20002;-90
2021/07/18 01:27:06;;;;;;;10.15;9.00;;;23.20;94.00;;;;;;6125806;23;20002;-91
2021/07/18 01:29:34;;;;;;;9.13;8.05;;;23.20;94.20;;;;;;6125617;23;20001;-91
2021/07/18 01:32:01;;;;;;;8.88;7.97;;;23.20;94.10;;;;;;6125846;23;20010;-92
2021/07/18 01:34:27;;;;;;;9.82;8.32;;;23.20;94.10;;;;;;6125888;23;20025;-91
2021/07/18 01:36:53;;;;;;;11.85;10.02;;;23.20;94.20;;;;;;6125859;23;20010;-91
2021/07/18 01:39:19;;;;;;;12.95;9.77;;;23.20;94.30;;;;;;6127166;23;20005;-91
2021/07/18 01:41:47;;;;;;;13.02;10.20;;;23.20;94.60;;;;;;6127953;23;20010;-90
2021/07/18 01:44:13;;;;;;;11.77;9.25;;;23.20;94.70;;;;;;6129535;23;20010;-91
2021/07/18 01:46:39;;;;;;;9.57;7.70;;;23.10;94.70;;;;;;6129616;23;20441;-92
2021/07/18 01:49:07;;;;;;;10.73;8.40;;;23.10;94.60;;;;;;6129180;23;20591;-91
2021/07/18 01:51:32;;;;;;;8.02;7.07;;;23.10;94.80;;;;;;6131426;23;20029;-91
2021/07/18 01:54:00;;;;;;;8.90;7.95;;;23.10;94.70;;;;;;6130213;23;20006;-91
2021/07/18 01:56:27;;;;;;;9.65;7.60;;;23.10;94.80;;;;;;6128843;23;20002;-91
2021/07/18 01:58:53;;;;;;;9.20;7.88;;;23.10;94.80;;;;;;6129391;23;19998;-90
2021/07/18 02:01:24;;;;;;;10.80;8.32;;;23.10;94.90;;;;;;6128160;23;20006;-91
2021/07/18 02:03:50;;;;;;;9.32;7.43;;;23.10;94.90;;;;;;6128079;23;20006;-91
2021/07/18 02:06:16;;;;;;;9.80;8.20;;;23.10;94.90;;;;;;6140564;23;20022;-90
2021/07/18 02:08:42;;;;;;;10.13;9.02;;;23.10;95.00;;;;;;6149604;23;20049;-90
2021/07/18 02:11:07;;;;;;;9.50;8.50;;;23.10;95.20;;;;;;6150427;23;20006;-91
2021/07/18 02:13:33;;;;;;;12.18;9.23;;;23.10;95.30;;;;;;6149173;23;20006;-91
2021/07/18 02:16:00;;;;;;;10.23;8.13;;;23.10;95.40;;;;;;6149738;23;20062;-91
2021/07/18 02:18:26;;;;;;;9.30;8.15;;;23.10;95.30;;;;;;6133675;23;20045;-90
2021/07/18 02:20:55;;;;;;;11.52;9.52;;;23.10;95.60;;;;;;6127760;23;20006;-91
2021/07/18 02:23:21;;;;;;;12.57;10.10;;;23.10;95.60;;;;;;6127342;23;20009;-91
2021/07/18 02:25:47;;;;;;;12.25;9.52;;;23.10;95.60;;;;;;6128820;23;20002;-91
2021/07/18 02:28:13;;;;;;;9.77;8.07;;;23.10;95.70;;;;;;6127347;23;20017;-91
2021/07/18 02:30:39;;;;;;;8.60;7.70;;;23.10;95.80;;;;;;6127176;23;20370;-91
2021/07/18 02:33:05;;;;;;;10.20;8.55;;;23.10;95.50;;;;;;6126696;23;20033;-91
2021/07/18 02:35:30;;;;;;;9.77;8.45;;;23.20;95.50;;;;;;6127154;23;20080;-91
2021/07/18 02:37:56;;;;;;;12.02;10.57;;;23.20;95.60;;;;;;6127334;23;20018;-90
2021/07/18 02:40:23;;;;;;;12.00;10.27;;;23.20;95.70;;;;;;6127482;23;20002;-92
2021/07/18 02:42:50;;;;;;;13.45;10.95;;;23.20;95.70;;;;;;6134831;23;20033;-91
2021/07/18 02:45:18;;;;;;;11.75;9.82;;;23.20;95.70;;;;;;6136614;23;20064;-91
2021/07/18 02:47:45;;;;;;;11.88;9.60;;;23.20;95.60;;;;;;6135493;23;20093;-91
2021/07/18 02:50:12;;;;;;;10.45;8.52;;;23.20;95.60;;;;;;6127241;23;20314;-91
2021/07/18 02:52:38;;;;;;;10.35;8.15;;;23.20;95.50;;;;;;6126743;23;20002;-92
2021/07/18 02:55:06;;;;;;;9.80;8.07;;;23.20;95.40;;;;;;6127120;23;20013;-91
2021/07/18 02:57:32;;;;;;;9.75;8.55;;;23.30;95.30;;;;;;6126894;23;20002;-91
2021/07/18 02:59:57;;;;;;;11.68;9.27;;;23.30;95.30;;;;;;6126890;23;20038;-91
2021/07/18 03:02:23;;;;;;;13.20;10.30;;;23.30;95.40;;;;;;6127185;23;20006;-91
2021/07/18 03:04:49;;;;;;;11.13;9.55;;;23.30;95.50;;;;;;6128339;23;20009;-91
2021/07/18 03:07:16;;;;;;;10.73;9.15;;;23.30;95.50;;;;;;6128650;23;20002;-91
2021/07/18 03:09:41;;;;;;;11.70;10.35;;;23.40;95.40;;;;;;6127933;23;20049;-91
2021/07/18 03:12:07;;;;;;;12.98;10.07;;;23.40;95.40;;;;;;6126672;23;20006;-91
2021/07/18 03:14:33;;;;;;;13.00;10.93;;;23.40;95.40;;;;;;6126678;23;20006;-91
2021/07/18 03:16:59;;;;;;;11.60;9.48;;;23.40;95.40;;;;;;6126717;23;20002;-91
2021/07/18 03:19:25;;;;;;;9.60;8.15;;;23.40;95.20;;;;;;6126449;23;19998;-91
2021/07/18 03:21:50;;;;;;;10.80;9.00;;;23.40;95.10;;;;;;6127410;23;20014;-91
2021/07/18 03:24:16;;;;;;;11.38;8.88;;;23.50;95.10;;;;;;6128157;23;19998;-91
2021/07/18 03:26:42;;;;;;;11.77;10.57;;;23.50;95.10;;;;;;6126442;23;20002;-91
2021/07/18 03:29:07;;;;;;;13.68;11.18;;;23.50;95.20;;;;;;6126859;23;20002;-92
2021/07/18 03:31:33;;;;;;;17.00;11.70;;;23.50;95.10;;;;;;6126674;23;20014;-91
2021/07/18 03:33:59;;;;;;;10.15;8.80;;;23.50;95.20;;;;;;6126541;23;20553;-90
2021/07/18 03:36:25;;;;;;;11.63;10.00;;;23.50;95.10;;;;;;6126671;23;19998;-92
2021/07/18 03:38:51;;;;;;;12.38;10.85;;;23.60;95.10;;;;;;6126273;23;20002;-91
2021/07/18 03:41:19;;;;;;;13.05;11.73;;;23.70;95.00;;;;;;6126758;23;20057;-91
2021/07/18 03:43:46;;;;;;;11.90;9.73;;;23.70;95.00;;;;;;6128128;23;20005;-91
2021/07/18 03:46:12;;;;;;;14.20;11.27;;;23.70;94.90;;;;;;6128138;23;20056;-91
2021/07/18 03:48:38;;;;;;;12.77;11.32;;;23.70;94.80;;;;;;6126816;23;20034;-92
2021/07/18 03:51:04;;;;;;;12.52;11.05;;;23.80;94.80;;;;;;6126494;23;20029;-91
2021/07/18 03:53:29;;;;;;;12.90;11.40;;;23.80;94.70;;;;;;6126529;23;20097;-91
2021/07/18 03:55:55;;;;;;;12.38;11.07;;;23.80;94.70;;;;;;6126612;23;20013;-90
2021/07/18 03:58:21;;;;;;;12.48;11.18;;;23.80;94.60;;;;;;6126561;23;20009;-91
2021/07/18 04:00:46;;;;;;;14.25;10.82;;;24.00;94.50;;;;;;6126362;23;20002;-91
2021/07/18 04:03:12;;;;;;;14.57;11.80;;;24.00;94.40;;;;;;6126394;23;20006;-91
2021/07/18 04:05:37;;;;;;;11.63;10.40;;;24.00;94.30;;;;;;6126317;23;20121;-91
2021/07/18 04:08:03;;;;;;;12.80;11.07;;;24.10;94.20;;;;;;6126352;23;20138;-91
2021/07/18 04:10:29;;;;;;;11.30;10.10;;;24.20;94.00;;;;;;6129058;23;20002;-91
2021/07/18 04:12:57;;;;;;;11.52;10.40;;;24.20;93.70;;;;;;6142165;23;20367;-90
2021/07/18 04:15:23;;;;;;;13.98;10.85;;;24.30;93.60;;;;;;6144816;23;20002;-90
2021/07/18 04:17:48;;;;;;;14.55;12.95;;;24.30;93.50;;;;;;6152445;23;19990;-91
2021/07/18 04:20:14;;;;;;;13.52;11.57;;;24.40;93.20;;;;;;6150769;23;20010;-91
2021/07/18 04:22:40;;;;;;;12.40;11.10;;;24.40;93.10;;;;;;6143948;23;20010;-91
2021/07/18 04:25:06;;;;;;;13.27;11.68;;;24.40;93.20;;;;;;6126685;23;20016;-91
2021/07/18 04:27:32;;;;;;;13.05;11.07;;;24.50;93.10;;;;;;6126716;23;20002;-91
2021/07/18 04:29:58;;;;;;;12.25;10.98;;;24.50;93.00;;;;;;6127164;23;20509;-91
2021/07/18 04:32:23;;;;;;;15.70;10.25;;;24.50;92.90;;;;;;6126067;23;20018;-91
2021/07/18 04:34:49;;;;;;;13.80;12.00;;;24.50;92.90;;;;;;6127509;23;20021;-91
2021/07/18 04:37:15;;;;;;;13.48;12.02;;;24.60;92.80;;;;;;6101915;23;20008;-91
2021/07/18 04:39:40;;;;;;;13.52;11.38;;;24.70;92.60;;;;;;6101924;23;20006;-91
2021/07/18 04:42:06;;;;;;;13.52;11.48;;;24.70;92.50;;;;;;6127419;23;20009;-91
2021/07/18 04:44:32;;;;;;;11.73;10.52;;;24.80;92.50;;;;;;6101370;23;20001;-91
2021/07/18 04:46:59;;;;;;;12.30;10.75;;;24.90;92.30;;;;;;6101575;23;20089;-91
2021/07/18 04:49:26;;;;;;;11.65;10.35;;;25.00;92.30;;;;;;6101558;23;20422;-90
2021/07/18 04:51:53;;;;;;;11.50;9.88;;;25.10;92.10;;;;;;6101391;23;20014;-91
2021/07/18 04:54:18;;;;;;;13.57;12.00;;;25.30;91.90;;;;;;6127458;23;20081;-91
2021/07/18 04:56:45;;;;;;;14.05;11.90;;;25.40;91.70;;;;;;6101434;23;20352;-92
2021/07/18 04:59:10;;;;;;;12.77;11.43;;;25.50;91.30;;;;;;6101655;23;19998;-91
2021/07/18 05:01:36;;;;;;;13.13;11.13;;;25.50;91.20;;;;;;6101695;23;20006;-91
2021/07/18 05:04:02;;;;;;;11.95;10.63;;;25.50;91.10;;;;;;6102542;23;20509;-91
2021/07/18 05:06:27;;;;;;;11.57;9.82;;;25.60;90.90;;;;;;6102224;23;20006;-91
2021/07/18 05:08:53;;;;;;;13.38;10.38;;;25.70;90.80;;;;;;6127725;23;20064;-91
2021/07/18 05:11:19;;;;;;;11.85;10.65;;;25.80;90.60;;;;;;6127856;23;20005;-91
2021/07/18 05:13:52;;;;;;;12.35;11.15;;;25.80;90.30;;;;;;6101318;23;20006;-90
2021/07/18 05:16:19;;;;;;;12.57;10.45;;;25.90;90.20;;;;;;6101057;23;20081;-91
2021/07/18 05:18:46;;;;;;;11.60;9.35;;;26.00;90.10;;;;;;6101483;23;20012;-90
2021/07/18 05:21:11;;;;;;;11.52;10.32;;;26.00;90.00;;;;;;6101607;23;20061;-91
2021/07/18 05:23:37;;;;;;;10.52;9.43;;;26.10;89.70;;;;;;6101520;23;20362;-91
2021/07/18 05:26:03;;;;;;;10.77;9.75;;;26.30;89.40;;;;;;6101480;23;20009;-91
2021/07/18 05:28:30;;;;;;;10.70;9.60;;;26.40;89.10;;;;;;6127290;23;20012;-91
2021/07/18 05:30:55;;;;;;;11.38;10.18;;;26.50;88.70;;;;;;6128021;23;19998;-91
2021/07/18 05:33:21;;;;;;;10.73;9.63;;;26.70;88.30;;;;;;6110987;23;20100;-91
2021/07/18 05:35:48;;;;;;;12.82;10.30;;;26.70;87.30;;;;;;6127633;23;19998;-91
2021/07/18 05:38:13;;;;;;;12.82;8.88;;;26.80;86.30;;;;;;6127537;23;20016;-90
2021/07/18 05:40:39;;;;;;;11.02;9.93;;;27.00;86.20;;;;;;6127815;23;20330;-91
2021/07/18 05:43:05;;;;;;;12.90;10.25;;;27.00;85.00;;;;;;6127748;23;20081;-91
2021/07/18 05:45:31;;;;;;;10.50;9.50;;;27.10;84.40;;;;;;6127747;23;20009;-90
2021/07/18 05:47:56;;;;;;;11.10;10.00;;;27.10;84.30;;;;;;6127826;23;20418;-90
2021/07/18 05:50:22;;;;;;;10.35;9.30;;;27.30;83.70;;;;;;6132657;23;20013;-91
2021/07/18 05:52:48;;;;;;;9.63;8.60;;;27.40;83.20;;;;;;6139067;23;20322;-91
2021/07/18 05:55:14;;;;;;;11.18;9.70;;;27.50;83.20;;;;;;6127518;23;20068;-91
2021/07/18 05:57:40;;;;;;;11.50;10.40;;;27.60;82.90;;;;;;6128355;23;20005;-90
2021/07/18 06:00:11;;;;;;;10.93;9.23;;;27.70;82.40;;;;;;6127420;23;20005;-92
2021/07/18 06:02:37;;;;;;;10.10;9.15;;;27.90;81.90;;;;;;6127241;23;20034;-91
2021/07/18 06:05:04;;;;;;;10.60;9.60;;;28.00;81.60;;;;;;6127260;23;20061;-91
2021/07/18 06:07:30;;;;;;;11.50;10.15;;;28.10;81.20;;;;;;6127296;23;20029;-91
2021/07/18 06:09:56;;;;;;;10.40;8.90;;;28.10;81.20;;;;;;6128632;23;20002;-91
2021/07/18 06:12:22;;;;;;;10.35;9.35;;;28.20;81.10;;;;;;6127003;23;20338;-91
2021/07/18 06:14:48;;;;;;;10.45;9.25;;;28.40;81.00;;;;;;6126790;23;20002;-91
2021/07/18 06:17:14;;;;;;;10.80;8.63;;;28.50;80.70;;;;;;6127872;23;20010;-90
2021/07/18 06:19:40;;;;;;;11.73;9.23;;;28.60;80.60;;;;;;6129077;23;20033;-90
2021/07/18 06:22:07;;;;;;;10.77;9.52;;;28.70;80.30;;;;;;6132341;23;20434;-91
2021/07/18 06:24:33;;;;;;;13.88;10.90;;;28.70;80.10;;;;;;6134603;23;19994;-91
2021/07/18 06:27:00;;;;;;;10.40;9.30;;;28.80;79.50;;;;;;6130260;23;20022;-90
2021/07/18 06:29:26;;;;;;;10.10;9.10;;;28.80;79.10;;;;;;6135014;23;20013;-89
2021/07/18 06:31:52;;;;;;;11.43;10.20;;;28.90;79.20;;;;;;6129458;23;20014;-92
2021/07/18 06:34:17;;;;;;;11.73;9.52;;;29.00;79.00;;;;;;6127397;23;20025;-90
2021/07/18 06:36:43;;;;;;;10.75;9.60;;;29.00;78.80;;;;;;6129103;23;20002;-91
2021/07/18 06:39:09;;;;;;;10.70;9.60;;;29.10;78.60;;;;;;6127271;23;20005;-91
2021/07/18 06:41:35;;;;;;;11.05;9.95;;;29.20;78.40;;;;;;6127036;23;20016;-91
2021/07/18 06:44:02;;;;;;;10.30;9.40;;;29.20;78.10;;;;;;6127119;23;20005;-91
2021/07/18 06:46:29;;;;;;;9.98;9.07;;;29.30;78.30;;;;;;6127153;23;20025;-91
2021/07/18 06:48:55;;;;;;;9.57;8.60;;;29.40;78.10;;;;;;6127138;23;20005;-91
2021/07/18 06:51:21;;;;;;;9.70;8.80;;;29.50;77.90;;;;;;6128397;23;19998;-92
2021/07/18 06:53:46;;;;;;;10.57;8.05;;;29.70;77.40;;;;;;6128940;23;19997;-91
2021/07/18 06:56:12;;;;;;;11.15;10.15;;;29.90;76.90;;;;;;6129127;23;20010;-91
2021/07/18 06:58:38;;;;;;;10.45;9.38;;;30.00;76.20;;;;;;6134108;23;20433;-91
2021/07/18 07:01:03;;;;;;;9.57;8.68;;;30.10;75.80;;;;;;6132345;23;20490;-92
2021/07/18 07:03:29;;;;;;;10.35;9.27;;;30.20;75.60;;;;;;6126975;23;20006;-92
2021/07/18 07:05:55;;;;;;;9.48;8.57;;;30.20;75.10;;;;;;6126904;23;19998;-92
2021/07/18 07:08:20;;;;;;;10.77;9.63;;;30.30;75.00;;;;;;6126955;23;20001;-92
2021/07/18 07:10:48;;;;;;;11.45;10.35;;;30.40;75.00;;;;;;6127155;23;20479;-92
2021/07/18 07:13:15;;;;;;;10.80;9.70;;;30.30;74.80;;;;;;6126571;23;20022;-92
2021/07/18 07:15:41;;;;;;;11.63;10.45;;;30.40;74.70;;;;;;6127353;23;20002;-92
2021/07/18 07:18:07;;;;;;;12.07;10.23;;;30.30;74.60;;;;;;6126584;23;20002;-92
2021/07/18 07:20:33;;;;;;;11.13;9.75;;;30.30;74.40;;;;;;6126904;23;20010;-92
2021/07/18 07:22:59;;;;;;;12.43;9.23;;;30.30;74.40;;;;;;6126653;23;20050;-92
2021/07/18 07:25:25;;;;;;;10.05;9.05;;;30.40;74.20;;;;;;6128154;23;19998;-92
2021/07/18 07:27:51;;;;;;;9.98;8.43;;;30.40;73.70;;;;;;6126737;23;20006;-92
2021/07/18 07:30:18;;;;;;;9.40;8.50;;;30.50;73.40;;;;;;6126663;23;20357;-93
2021/07/18 07:32:45;;;;;;;8.93;8.13;;;30.60;73.00;;;;;;6126487;23;20050;-91
2021/07/18 07:35:15;;;;;;;11.55;8.95;;;30.70;72.80;;;;;;6126734;23;20009;-93
2021/07/18 07:37:42;;;;;;;11.27;9.77;;;30.70;72.20;;;;;;6127895;23;20030;-92
2021/07/18 07:40:13;;;;;;;10.25;9.25;;;30.80;72.10;;;;;;6126544;23;20002;-91
2021/07/18 07:42:39;;;;;;;9.82;8.93;;;30.80;71.50;;;;;;6126678;23;20006;-92
2021/07/18 07:45:09;;;;;;;9.57;8.57;;;30.90;71.40;;;;;;6127000;23;20033;-91
2021/07/18 07:47:35;;;;;;;8.88;8.07;;;30.90;71.20;;;;;;6126104;23;20002;-92
2021/07/18 07:50:01;;;;;;;9.70;8.73;;;31.00;71.10;;;;;;6128215;23;20029;-91
2021/07/18 07:52:26;;;;;;;11.00;9.90;;;31.10;70.70;;;;;;6128033;23;20013;-92
2021/07/18 07:54:52;;;;;;;9.02;8.13;;;31.10;69.30;;;;;;6126246;23;20064;-92
2021/07/18 07:57:18;;;;;;;9.00;7.65;;;31.10;69.30;;;;;;6127690;23;20006;-91
2021/07/18 07:59:43;;;;;;;9.57;8.57;;;31.10;69.10;;;;;;6127958;23;19998;-92
2021/07/18 08:02:09;;;;;;;9.65;8.75;;;31.10;68.90;;;;;;6127578;23;20036;-92
2021/07/18 08:04:34;;;;;;;9.25;8.35;;;31.10;67.80;;;;;;6126573;23;20108;-92
2021/07/18 08:07:00;;;;;;;8.45;7.65;;;31.00;68.10;;;;;;6127855;23;20002;-91
2021/07/18 08:09:26;;;;;;;8.13;7.32;;;31.00;67.90;;;;;;6126008;23;20005;-92
2021/07/18 08:11:51;;;;;;;8.73;7.47;;;31.10;67.90;;;;;;6126831;23;20012;-91
2021/07/18 08:14:17;;;;;;;9.13;8.23;;;31.20;67.40;;;;;;6126586;23;20009;-92
2021/07/18 08:16:43;;;;;;;9.60;7.80;;;31.30;66.70;;;;;;6126218;23;20017;-92
2021/07/18 08:19:09;;;;;;;7.55;6.85;;;31.30;66.30;;;;;;6128125;23;20002;-91
2021/07/18 08:21:35;;;;;;;8.27;7.38;;;31.40;66.30;;;;;;6126087;23;20006;-92
2021/07/18 08:24:00;;;;;;;7.57;6.88;;;31.50;66.00;;;;;;6126252;23;19998;-92
2021/07/18 08:26:26;;;;;;;7.15;6.50;;;31.60;65.50;;;;;;6126350;23;20005;-92
2021/07/18 08:28:52;;;;;;;6.40;5.80;;;31.60;64.20;;;;;;6125590;23;20030;-94
2021/07/18 08:31:18;;;;;;;8.63;7.25;;;31.60;64.50;;;;;;6126544;23;20006;-94
2021/07/18 08:33:45;;;;;;;6.82;6.22;;;31.60;63.40;;;;;;6132157;23;20378;-94
2021/07/18 08:36:11;;;;;;;7.60;6.90;;;31.60;62.40;;;;;;6136585;23;20374;-93
2021/07/18 08:38:37;;;;;;;6.93;6.22;;;31.60;61.90;;;;;;6133757;23;20002;-90
2021/07/18 08:41:03;;;;;;;6.97;5.78;;;31.60;62.50;;;;;;6139591;23;20009;-90
2021/07/18 08:43:33;;;;;;;7.28;6.05;;;31.70;61.00;;;;;;6139465;23;20029;-92
2021/07/18 08:45:59;;;;;;;6.85;5.65;;;31.70;60.00;;;;;;6130820;23;20006;-92
2021/07/18 08:48:24;;;;;;;5.82;5.22;;;31.70;60.00;;;;;;6128758;23;20024;-94
2021/07/18 08:50:51;;;;;;;6.90;6.30;;;31.70;60.30;;;;;;6124844;23;20347;-93
2021/07/18 08:53:17;;;;;;;6.45;5.85;;;31.70;59.30;;;;;;6126598;23;20002;-93
2021/07/18 08:55:44;;;;;;;7.25;6.13;;;31.70;58.60;;;;;;6127375;23;20023;-93
2021/07/18 08:58:11;;;;;;;6.80;6.20;;;31.70;58.00;;;;;;6127460;23;19998;-93
2021/07/18 09:00:36;;;;;;;6.00;5.40;;;31.70;58.20;;;;;;6128093;23;20009;-91
2021/07/18 09:03:03;;;;;;;6.03;5.43;;;31.80;58.50;;;;;;6126651;23;20002;-91
2021/07/18 09:05:28;;;;;;;9.38;6.38;;;31.90;58.20;;;;;;6129477;23;20013;-91
2021/07/18 09:07:56;;;;;;;6.68;5.97;;;32.00;57.40;;;;;;6128298;23;20427;-90
2021/07/18 09:10:30;;;;;;;6.97;6.28;;;32.10;57.20;;;;;;6130079;23;20004;-90
2021/07/18 09:13:11;;;;;;;7.20;6.30;;;32.10;57.00;;;;;;6128069;23;20414;-90
2021/07/18 09:15:52;;;;;;;6.75;6.05;;;32.20;57.20;;;;;;6128559;23;20006;-91
2021/07/18 09:18:25;;;;;;;6.45;5.85;;;32.20;57.20;;;;;;6127732;23;20002;-94
2021/07/18 09:20:53;;;;;;;6.55;5.97;;;32.20;57.20;;;;;;6129525;23;20009;-92
2021/07/18 09:23:28;;;;;;;7.30;6.60;;;32.30;57.30;;;;;;6128432;23;20002;-94
2021/07/18 09:26:16;;;;;;;8.10;6.78;;;32.30;57.30;;;;;;6127893;23;20014;-94
2021/07/18 09:28:41;;;;;;;6.43;5.80;;;32.40;56.90;;;;;;6127542;23;20041;-92
2021/07/18 09:31:31;;;;;;;6.35;5.70;;;32.50;58.10;;;;;;6128056;23;20366;-91
2021/07/18 09:34:11;;;;;;;6.60;5.95;;;32.60;56.60;;;;;;6128114;23;20074;-92
2021/07/18 09:36:37;;;;;;;6.57;5.97;;;32.70;57.20;;;;;;6127734;23;20002;-91
2021/07/18 09:39:11;;;;;;;8.32;6.35;;;32.70;57.00;;;;;;6127513;23;20092;-92
2021/07/18 09:41:45;;;;;;;8.60;7.38;;;32.80;57.00;;;;;;6128118;23;20422;-92
2021/07/18 09:44:10;;;;;;;9.20;8.27;;;32.80;56.70;;;;;;6128826;23;19998;-92
2021/07/18 09:46:36;;;;;;;9.32;8.35;;;32.80;56.10;;;;;;6126715;23;20029;-92
2021/07/18 09:49:04;;;;;;;8.50;7.70;;;32.70;56.20;;;;;;6126139;23;20426;-91
2021/07/18 09:51:31;;;;;;;7.88;7.18;;;32.70;56.30;;;;;;6126384;23;20085;-93
2021/07/18 09:54:08;;;;;;;7.30;6.68;;;32.70;56.40;;;;;;6127334;23;20005;-91
2021/07/18 09:56:34;;;;;;;8.70;7.88;;;32.70;56.60;;;;;;6127438;23;20013;-92
2021/07/18 09:58:59;;;;;;;7.90;7.20;;;32.70;56.10;;;;;;6127186;23;20037;-92
2021/07/18 10:01:33;;;;;;;8.10;7.30;;;32.70;55.90;;;;;;6127507;23;20077;-92
2021/07/18 10:04:02;;;;;;;7.90;7.13;;;32.80;55.60;;;;;;6127401;23;19998;-92
2021/07/18 10:06:30;;;;;;;7.10;6.50;;;32.80;55.70;;;;;;6127323;23;20426;-89
2021/07/18 10:09:09;;;;;;;7.38;6.68;;;32.80;55.70;;;;;;6125775;23;20129;-92
2021/07/18 10:11:36;;;;;;;8.50;7.72;;;33.00;55.80;;;;;;6125299;23;19998;-92
2021/07/18 10:14:01;;;;;;;8.27;7.47;;;33.00;55.10;;;;;;6126339;23;20089;-91
2021/07/18 10:16:29;;;;;;;7.35;6.65;;;33.00;55.10;;;;;;6125876;23;20002;-92
2021/07/18 10:18:56;;;;;;;8.10;7.40;;;33.00;55.30;;;;;;6126194;23;20089;-93
2021/07/18 10:21:28;;;;;;;10.85;7.80;;;33.10;54.80;;;;;;6126526;23;20029;-93
2021/07/18 10:23:57;;;;;;;8.90;8.07;;;33.20;54.50;;;;;;6125963;23;20020;-92
2021/07/18 10:26:30;;;;;;;8.27;7.53;;;33.10;54.10;;;;;;6126553;23;20034;-93
2021/07/18 10:28:57;;;;;;;7.88;7.07;;;33.00;54.10;;;;;;6126059;23;20013;-94
2021/07/18 10:31:49;;;;;;;8.73;7.93;;;33.00;54.20;;;;;;6128991;23;20056;-92
2021/07/18 10:34:17;;;;;;;11.93;7.85;;;33.00;53.20;;;;;;6114526;23;20014;-92
2021/07/18 10:36:43;;;;;;;8.23;7.45;;;32.90;54.10;;;;;;6126758;23;20002;-92
2021/07/18 10:39:29;;;;;;;8.38;7.57;;;33.00;54.30;;;;;;6124060;23;20120;-93
2021/07/18 10:41:56;;;;;;;8.75;7.82;;;33.00;54.00;;;;;;6126863;23;20014;-93
2021/07/18 10:44:21;;;;;;;8.05;7.25;;;32.90;54.20;;;;;;6105903;23;20010;-92
2021/07/18 10:46:53;;;;;;;8.80;8.00;;;33.00;54.30;;;;;;6137660;23;20002;-92
2021/07/18 10:49:58;;;;;;;7.45;6.75;;;33.00;53.90;;;;;;6136641;23;20012;-92
2021/07/18 10:52:29;;;;;;;8.60;7.80;;;33.00;53.80;;;;;;6140973;23;20018;-91
2021/07/18 10:55:30;;;;;;;8.35;7.55;;;33.00;53.30;;;;;;6145235;23;20044;-94
2021/07/18 10:57:56;;;;;;;8.70;7.93;;;33.00;53.60;;;;;;6026232;23;20049;-92
2021/07/18 11:00:33;;;;;;;8.60;7.80;;;33.00;53.70;;;;;;6129331;23;19998;-93
2021/07/18 11:03:19;;;;;;;8.30;7.25;;;33.00;53.50;;;;;;6127512;23;19998;-92
2021/07/18 11:06:21;;;;;;;7.00;6.32;;;33.20;53.50;;;;;;6127245;23;20008;-91
2021/07/18 11:12:32;;;;;;;6.18;5.57;;;33.50;53.20;;;;;;6064272;23;20024;-90
2021/07/18 11:15:16;;;;;;;7.25;6.55;;;33.60;52.80;;;;;;6127376;23;20422;-91
2021/07/18 11:18:02;;;;;;;8.25;7.47;;;33.70;52.30;;;;;;6127532;23;20478;-89
2021/07/18 11:20:46;;;;;;;9.00;8.00;;;33.80;51.70;;;;;;6124054;23;20002;-91
2021/07/18 11:23:13;;;;;;;8.20;7.47;;;33.80;50.20;;;;;;6125242;23;20056;-91
2021/07/18 11:25:50;;;;;;;8.07;7.32;;;33.70;51.40;;;;;;6125403;23;20006;-92
2021/07/18 11:28:41;;;;;;;7.28;6.57;;;33.70;50.60;;;;;;6127334;23;20006;-93
2021/07/18 11:31:13;;;;;;;7.10;6.40;;;33.70;50.50;;;;;;6128254;23;20092;-93
2021/07/18 11:33:44;;;;;;;7.13;6.53;;;33.70;51.70;;;;;;6126275;23;20022;-90
2021/07/18 11:36:30;;;;;;;7.45;6.75;;;33.90;51.30;;;;;;6126933;23;19998;-91
2021/07/18 11:38:56;;;;;;;8.98;8.10;;;33.90;51.20;;;;;;6108053;23;20426;-91
2021/07/18 11:41:23;;;;;;;8.30;7.50;;;34.00;51.10;;;;;;6126086;23;20029;-90
2021/07/18 11:43:53;;;;;;;8.48;7.65;;;33.90;51.00;;;;;;6129755;23;20002;-89
2021/07/18 11:46:21;;;;;;;8.25;7.07;;;33.90;50.80;;;;;;6127819;23;20010;-92
2021/07/18 11:48:54;;;;;;;7.20;6.57;;;33.80;50.80;;;;;;6127577;23;20014;-91
2021/07/18 11:51:22;;;;;;;6.93;6.25;;;33.70;50.80;;;;;;6102195;23;20064;-92
2021/07/18 11:53:57;;;;;;;8.00;7.10;;;33.70;51.00;;;;;;6128482;23;20032;-91
2021/07/18 11:56:28;;;;;;;8.35;7.07;;;33.80;50.70;;;;;;6125348;23;20497;-89
2021/07/18 11:59:00;;;;;;;8.13;7.45;;;33.60;50.40;;;;;;6125691;23;19998;-90
2021/07/18 12:01:27;;;;;;;8.25;7.50;;;33.60;51.60;;;;;;6127447;23;20025;-91
2021/07/18 12:03:53;;;;;;;8.77;6.75;;;33.60;52.30;;;;;;6126772;23;20002;-90
2021/07/18 12:06:20;;;;;;;8.35;7.65;;;33.70;52.30;;;;;;6125435;23;20017;-90
2021/07/18 12:08:46;;;;;;;8.30;7.60;;;33.80;51.20;;;;;;6125385;23;20010;-93
2021/07/18 12:11:15;;;;;;;7.70;7.00;;;33.80;50.90;;;;;;6126514;23;20076;-92
2021/07/18 12:13:46;;;;;;;8.07;7.18;;;33.80;50.70;;;;;;6127990;23;20058;-90
2021/07/18 12:16:11;;;;;;;8.02;7.13;;;33.80;50.10;;;;;;6126476;23;20029;-90
2021/07/18 12:18:51;;;;;;;8.52;7.75;;;33.90;50.30;;;;;;6124797;23;20002;-91
2021/07/18 12:21:25;;;;;;;7.68;6.88;;;34.00;50.10;;;;;;6126181;23;20001;-90
2021/07/18 12:24:15;;;;;;;7.88;7.07;;;34.20;50.40;;;;;;6125488;23;20002;-90
2021/07/18 12:26:46;;;;;;;8.40;7.60;;;34.60;48.90;;;;;;6126496;23;20002;-89
2021/07/18 12:29:14;;;;;;;7.30;6.70;;;34.80;49.60;;;;;;6125483;23;20006;-91
2021/07/18 12:31:46;;;;;;;7.50;6.80;;;35.10;49.60;;;;;;6128699;23;20017;-92
2021/07/18 12:34:14;;;;;;;7.28;6.65;;;35.50;49.40;;;;;;6101255;23;20022;-93
2021/07/18 12:37:14;;;;;;;7.40;6.80;;;35.90;49.50;;;;;;6128058;23;20006;-94
2021/07/18 12:39:44;;;;;;;7.43;6.82;;;36.20;47.20;;;;;;6125001;23;20089;-91
2021/07/18 12:42:20;;;;;;;6.80;6.20;;;36.60;47.90;;;;;;6100957;23;20497;-93
2021/07/18 12:44:56;;;;;;;7.20;6.60;;;36.90;47.50;;;;;;6125497;23;20002;-92
2021/07/18 12:47:33;;;;;;;6.82;6.22;;;37.30;47.80;;;;;;6126921;23;20002;-95
2021/07/18 12:50:10;;;;;;;6.57;6.07;;;37.80;46.90;;;;;;6125500;23;20002;-93